Time;durP1;ratioP1;P1;durP2;ratioP2;P2;SDS_P1;SDS_P2;PMS_P1;PMS_P2;Temp;Humidity;BMP_temperature;BMP_pressure;BME280_temperature;BME280_humidity;BME280_pressure;Samples;Min_cycle;Max_cycle;Signal;HPM_P1;HPM_P2
2023/04/23 11:41:42;;;;;;;6.50;2.10;;;;;;;19.47;100.00;100171.80;102510;1292;600723;-59
2023/04/23 11:44:12;;;;;;;8.60;2.20;;;;;;;19.75;98.25;100165.27;104668;1274;61843;-56
2023/04/23 11:46:40;;;;;;;13.80;2.70;;;;;;;19.85;98.16;100165.65;105000;1268;60860;-58
2023/04/23 11:49:08;;;;;;;9.50;3.60;;;;;;;19.93;100.00;100168.35;105040;1268;73850;-60
2023/04/23 11:51:44;;;;;;;7.90;2.80;;;;;;;19.50;100.00;100177.77;105215;1263;68365;-59
2023/04/23 11:54:13;;;;;;;8.80;3.10;;;;;;;18.91;100.00;100183.38;104895;1266;225011;-57
2023/04/23 11:56:42;;;;;;;6.70;2.80;;;;;;;18.34;100.00;100181.89;105212;1260;61962;-56
2023/04/23 11:59:11;;;;;;;8.20;3.00;;;;;;;17.78;100.00;100187.05;105666;1263;60855;-58
2023/04/23 12:01:41;;;;;;;8.30;3.20;;;;;;;17.24;100.00;100194.65;105235;1260;72584;-57
2023/04/23 12:04:14;;;;;;;8.10;2.60;;;;;;;16.57;100.00;100197.66;105298;1265;67451;-56
2023/04/23 12:06:44;;;;;;;8.00;2.50;;;;;;;15.77;100.00;100194.81;105008;1261;74183;-59
2023/04/23 12:09:14;;;;;;;10.00;2.70;;;;;;;15.02;100.00;100196.79;105344;1260;63700;-61
2023/04/23 12:11:43;;;;;;;6.60;2.30;;;;;;;14.41;100.00;100202.80;105291;1265;61163;-58
2023/04/23 12:14:13;;;;;;;7.90;3.10;;;;;;;14.07;100.00;100208.66;105622;1263;73685;-58
2023/04/23 12:16:44;;;;;;;8.80;2.70;;;;;;;13.89;100.00;100212.59;105212;1260;67687;-57
2023/04/23 12:19:14;;;;;;;10.10;3.30;;;;;;;13.78;100.00;100211.24;105431;1263;73868;-60
2023/04/23 12:21:56;;;;;;;7.20;2.50;;;;;;;13.71;100.00;100211.42;105263;1265;63503;-57
2023/04/23 12:24:45;;;;;;;9.00;2.20;;;;;;;13.68;100.00;100206.27;105051;1261;61787;-57
2023/04/23 12:27:15;;;;;;;8.20;2.70;;;;;;;13.72;100.00;100203.39;105389;1261;74581;-58
2023/04/23 12:29:44;;;;;;;11.80;4.40;;;;;;;13.78;100.00;100200.36;105364;1264;67613;-57
2023/04/23 12:32:13;;;;;;;11.40;4.30;;;;;;;13.87;100.00;100200.00;105447;1264;73018;-60
2023/04/23 12:34:52;;;;;;;10.70;4.30;;;;;;;14.03;100.00;100204.56;105245;1261;61869;-58
2023/04/23 12:37:28;;;;;;;12.90;4.60;;;;;;;14.21;100.00;100203.49;105274;1263;61325;-58
2023/04/23 12:39:58;;;;;;;8.30;2.40;;;;;;;14.44;100.00;100206.70;105274;1261;73548;-59
2023/04/23 12:42:26;;;;;;;8.10;2.80;;;;;;;14.68;100.00;100202.61;105371;1260;68553;-60
2023/04/23 12:45:07;;;;;;;8.90;3.30;;;;;;;14.97;100.00;100205.23;105194;1266;73159;-58
2023/04/23 12:47:36;;;;;;;6.20;2.60;;;;;;;15.25;100.00;100207.85;105203;1264;61901;-58
2023/04/23 12:50:05;;;;;;;9.70;3.20;;;;;;;15.44;100.00;100208.98;105519;1263;60705;-60
2023/04/23 12:52:34;;;;;;;7.90;2.80;;;;;;;15.58;100.00;100210.84;105734;1256;73498;-58
2023/04/23 12:55:03;;;;;;;8.90;2.60;;;;;;;15.63;100.00;100218.26;105934;1253;68585;-58
2023/04/23 12:57:32;;;;;;;9.50;3.00;;;;;;;15.61;100.00;100235.67;105936;1256;74223;-58
2023/04/23 13:00:01;;;;;;;13.20;3.30;;;;;;;15.51;100.00;100257.46;106073;1254;61958;-61
2023/04/23 13:02:31;;;;;;;8.10;3.00;;;;;;;15.37;100.00;100262.59;105806;1254;62066;-58
2023/04/23 13:05:00;;;;;;;6.90;2.50;;;;;;;15.14;100.00;100265.43;105774;1254;73457;-58
2023/04/23 13:07:29;;;;;;;7.80;1.60;;;;;;;14.85;100.00;100265.80;105837;1254;68596;-58
2023/04/23 13:09:58;;;;;;;4.90;1.10;;;;;;;14.58;100.00;100261.34;105822;1256;73323;-58
2023/04/23 13:12:27;;;;;;;2.80;0.90;;;;;;;14.29;100.00;100264.77;105887;1258;62245;-58
2023/04/23 13:14:55;;;;;;;3.80;1.30;;;;;;;13.92;100.00;100259.98;105957;1254;61974;-59
2023/04/23 13:17:25;;;;;;;4.00;1.10;;;;;;;13.55;100.00;100258.34;105854;1254;74570;-60
2023/04/23 13:19:54;;;;;;;6.50;1.30;;;;;;;13.22;100.00;100253.56;106115;1256;68169;-64
2023/04/23 13:22:27;;;;;;;4.10;1.10;;;;;;;12.98;100.00;100246.70;105807;1254;73181;-59
2023/04/23 13:24:56;;;;;;;4.40;1.60;;;;;;;12.79;100.00;100242.61;105873;1254;62039;-57
2023/04/23 13:27:25;;;;;;;6.20;2.40;;;;;;;12.63;100.00;100239.27;105750;1254;61885;-60
2023/04/23 13:29:54;;;;;;;13.20;5.00;;;;;;;12.52;100.00;100238.83;106047;1254;73523;-61
2023/04/23 13:32:25;;;;;;;11.70;6.10;;;;;;;12.47;100.00;100225.89;105929;1254;67743;-62
2023/04/23 13:34:55;;;;;;;10.20;4.70;;;;;;;12.46;100.00;100233.66;105910;1255;73446;-60
2023/04/23 13:37:25;;;;;;;7.00;2.70;;;;;;;12.49;100.00;100232.36;105884;1252;62512;-60
2023/04/23 13:39:53;;;;;;;8.40;2.20;;;;;;;12.49;100.00;100221.92;105641;1256;61124;-61
2023/04/23 13:42:22;;;;;;;7.20;2.00;;;;;;;12.54;100.00;100222.42;105976;1254;74540;-60
2023/04/23 13:44:50;;;;;;;4.80;1.90;;;;;;;12.59;100.00;100224.31;105816;1254;68412;-59
2023/04/23 13:47:19;;;;;;;7.80;1.80;;;;;;;12.66;100.00;100222.98;105999;1254;72586;-59
2023/04/23 13:49:47;;;;;;;6.30;2.40;;;;;;;12.74;100.00;100224.08;106185;1251;63785;-60
2023/04/23 13:52:16;;;;;;;9.10;3.20;;;;;;;12.84;100.00;100226.11;105743;1256;61201;-59
2023/04/23 13:54:46;;;;;;;10.00;2.70;;;;;;;12.92;100.00;100227.42;105918;1253;74463;-60
2023/04/23 13:57:15;;;;;;;7.50;2.60;;;;;;;13.01;100.00;100233.90;105736;1255;68597;-59
2023/04/23 13:59:43;;;;;;;5.20;2.20;;;;;;;13.13;100.00;100239.36;105877;1257;74101;-62
2023/04/23 14:02:12;;;;;;;7.30;2.00;;;;;;;13.23;100.00;100242.70;105906;1256;64230;-60
2023/04/23 14:04:41;;;;;;;4.20;1.40;;;;;;;13.27;100.00;100244.96;105953;1254;61616;-59
2023/04/23 14:07:10;;;;;;;5.10;2.00;;;;;;;13.30;100.00;100246.02;105879;1253;73599;-58
2023/04/23 14:09:39;;;;;;;4.60;1.80;;;;;;;13.34;100.00;100244.97;105994;1255;67541;-64
2023/04/23 14:12:08;;;;;;;7.60;2.10;;;;;;;13.43;100.00;100249.15;106085;1254;74518;-62
2023/04/23 14:14:37;;;;;;;8.10;2.00;;;;;;;13.58;100.00;100251.25;105536;1255;63573;-58
2023/04/23 14:17:05;;;;;;;8.50;4.10;;;;;;;13.76;100.00;100252.35;105813;1255;60755;-59
2023/04/23 14:19:36;;;;;;;13.00;5.40;;;;;;;13.93;100.00;100260.14;105904;1256;73575;-60
2023/04/23 14:22:05;;;;;;;9.30;4.50;;;;;;;14.14;100.00;100262.84;105886;1251;68527;-65
2023/04/23 14:24:38;;;;;;;9.40;3.90;;;;;;;14.31;100.00;100264.48;105804;1252;75068;-58
2023/04/23 14:27:06;;;;;;;6.70;3.00;;;;;;;14.47;100.00;100266.73;105745;1256;60921;-59
2023/04/23 14:29:39;;;;;;;9.90;3.90;;;;;;;14.60;100.00;100267.51;105675;1256;61222;-61
2023/04/23 14:32:08;;;;;;;9.40;3.00;;;;;;;14.73;100.00;100267.40;105658;1257;72983;-58
2023/04/23 14:34:38;;;;;;;6.80;2.50;;;;;;;14.85;100.00;100266.68;105817;1254;68389;-58
2023/04/23 14:37:05;;;;;;;7.80;2.50;;;;;;;14.90;100.00;100266.50;105595;1258;75201;-58
2023/04/23 14:39:32;;;;;;;8.40;3.00;;;;;;;14.91;100.00;100267.95;105480;1257;61552;-60
2023/04/23 14:42:01;;;;;;;9.20;2.20;;;;;;;14.89;100.00;100264.20;105926;1257;62551;-58
2023/04/23 14:44:28;;;;;;;7.40;2.20;;;;;;;14.87;100.00;100263.09;105784;1251;74298;-58
2023/04/23 14:46:55;;;;;;;5.10;1.70;;;;;;;14.86;100.00;100260.16;105842;1257;69659;-59
2023/04/23 14:49:23;;;;;;;4.50;1.80;;;;;;;14.86;100.00;100257.81;105835;1254;75379;-60
2023/04/23 14:51:53;;;;;;;6.60;1.90;;;;;;;14.86;100.00;100254.34;105713;1257;62625;-58
2023/04/23 14:54:21;;;;;;;4.70;2.00;;;;;;;14.86;100.00;100249.73;105709;1254;62466;-58
2023/04/23 14:56:49;;;;;;;5.70;1.50;;;;;;;14.86;100.00;100243.69;105676;1251;74442;-57
2023/04/23 14:59:16;;;;;;;5.20;1.50;;;;;;;14.85;100.00;100244.23;105722;1257;68529;-59
2023/04/23 15:01:43;;;;;;;7.10;1.20;;;;;;;14.86;100.00;100235.40;106038;1257;74874;-63
2023/04/23 15:04:11;;;;;;;4.40;1.60;;;;;;;14.90;100.00;100228.23;105536;1254;62812;-59
2023/04/23 15:06:39;;;;;;;4.30;1.40;;;;;;;14.89;100.00;100227.46;105849;1251;61860;-57
2023/04/23 15:09:06;;;;;;;5.70;1.80;;;;;;;14.87;100.00;100227.48;105890;1254;75126;-58
2023/04/23 15:11:33;;;;;;;4.50;1.40;;;;;;;14.84;100.00;100228.94;105593;1257;69862;-57
2023/04/23 15:14:08;;;;;;;4.40;1.60;;;;;;;14.84;100.00;100227.61;105852;1254;74073;-62
2023/04/23 15:16:36;;;;;;;4.10;1.80;;;;;;;14.84;100.00;100223.58;105744;1258;62706;-57
2023/04/23 15:19:16;;;;;;;4.00;1.70;;;;;;;14.81;100.00;100219.48;105660;1259;62003;-57
2023/04/23 15:21:44;;;;;;;4.30;1.60;;;;;;;14.74;100.00;100220.45;105511;1256;75971;-63
2023/04/23 15:24:12;;;;;;;4.00;1.30;;;;;;;14.68;100.00;100217.78;105855;1251;69629;-56
2023/04/23 15:26:39;;;;;;;7.20;1.00;;;;;;;14.64;100.00;100220.98;105618;1254;74865;-58
2023/04/23 15:29:09;;;;;;;2.90;0.70;;;;;;;14.60;100.00;100223.88;105612;1267;61598;-57
2023/04/23 15:31:36;;;;;;;8.00;1.60;;;;;;;14.57;100.00;100227.13;105652;1254;62853;-57
2023/04/23 15:34:07;;;;;;;5.30;1.70;;;;;;;14.54;100.00;100233.27;105447;1254;75372;-58
2023/04/23 15:36:36;;;;;;;6.40;1.20;;;;;;;14.50;100.00;100235.98;105569;1260;69708;-58
2023/04/23 15:39:05;;;;;;;8.60;2.60;;;;;;;14.37;100.00;100234.85;105731;1257;74300;-57
2023/04/23 15:41:32;;;;;;;5.00;1.40;;;;;;;14.28;100.00;100243.39;105806;1257;61024;-64
2023/04/23 15:44:00;;;;;;;3.10;1.30;;;;;;;14.20;100.00;100249.48;105564;1253;62703;-64
2023/04/23 15:46:27;;;;;;;7.00;2.10;;;;;;;14.09;100.00;100254.18;105556;1257;74542;-58
2023/04/23 15:48:55;;;;;;;4.30;1.80;;;;;;;13.96;100.00;100251.75;105778;1256;69093;-58
2023/04/23 15:51:22;;;;;;;5.00;1.40;;;;;;;13.82;100.00;100251.81;105617;1252;75248;-57
2023/04/23 15:53:50;;;;;;;4.50;1.60;;;;;;;13.68;100.00;100251.29;105461;1253;62539;-58
2023/04/23 15:56:17;;;;;;;5.00;1.50;;;;;;;13.53;100.00;100254.19;105884;1253;62327;-59
2023/04/23 15:58:44;;;;;;;7.20;1.60;;;;;;;13.36;100.00;100253.55;105506;1251;76432;-57
2023/04/23 16:01:11;;;;;;;6.00;1.10;;;;;;;13.23;100.00;100252.11;105907;1257;69362;-58
2023/04/23 16:03:38;;;;;;;9.80;2.10;;;;;;;13.12;100.00;100253.38;105885;1254;75599;-63
2023/04/23 16:06:07;;;;;;;3.50;1.00;;;;;;;13.04;100.00;100251.87;105698;1253;64503;-57
2023/04/23 16:08:36;;;;;;;4.40;1.20;;;;;;;12.97;100.00;100253.83;105634;1251;60582;-59
2023/04/23 16:11:03;;;;;;;6.50;1.90;;;;;;;12.90;100.00;100258.45;105639;1251;75201;-58
2023/04/23 16:13:31;;;;;;;4.40;1.40;;;;;;;12.85;100.00;100263.30;105692;1258;68680;-58
2023/04/23 16:15:58;;;;;;;5.70;1.70;;;;;;;12.79;100.00;100265.22;105724;1254;74918;-59
2023/04/23 16:18:25;;;;;;;5.30;1.80;;;;;;;12.70;100.00;100264.99;105689;1258;63179;-64
2023/04/23 16:20:52;;;;;;;6.70;2.20;;;;;;;12.61;100.00;100269.35;105562;1251;62203;-57
2023/04/23 16:23:19;;;;;;;6.50;2.50;;;;;;;12.55;100.00;100271.02;105649;1257;76505;-57
2023/04/23 16:25:47;;;;;;;6.90;2.20;;;;;;;12.49;100.00;100271.02;105951;1256;69511;-63
2023/04/23 16:28:14;;;;;;;4.80;2.10;;;;;;;12.41;100.00;100275.98;105293;1251;75116;-57
2023/04/23 16:30:41;;;;;;;7.10;1.90;;;;;;;12.33;100.00;100280.05;105720;1257;63293;-63
2023/04/23 16:33:09;;;;;;;4.20;1.80;;;;;;;12.27;100.00;100283.28;105444;1256;61724;-58
2023/04/23 16:35:36;;;;;;;7.10;2.50;;;;;;;12.22;100.00;100286.52;105707;1257;76281;-57
2023/04/23 16:38:03;;;;;;;6.70;2.50;;;;;;;12.17;100.00;100288.25;105633;1259;68228;-61
2023/04/23 16:40:30;;;;;;;5.30;2.50;;;;;;;12.10;100.00;100288.56;105671;1256;75244;-56
2023/04/23 16:42:57;;;;;;;5.90;3.00;;;;;;;12.04;100.00;100291.10;105722;1257;64906;-57
2023/04/23 16:45:25;;;;;;;6.50;2.70;;;;;;;12.00;100.00;100291.07;105799;1257;62772;-56
2023/04/23 16:47:52;;;;;;;6.90;2.80;;;;;;;11.97;100.00;100292.47;105837;1251;74949;-61
2023/04/23 16:50:19;;;;;;;7.60;3.10;;;;;;;11.93;100.00;100289.06;105441;1251;69573;-57
2023/04/23 16:52:46;;;;;;;9.80;3.30;;;;;;;11.92;100.00;100286.84;105388;1251;75008;-57
2023/04/23 16:55:13;;;;;;;10.90;3.50;;;;;;;11.87;100.00;100287.41;105620;1254;64988;-58
2023/04/23 16:57:41;;;;;;;6.90;3.10;;;;;;;11.83;100.00;100288.71;105677;1251;62922;-56
2023/04/23 17:00:09;;;;;;;7.30;2.40;;;;;;;11.82;100.00;100290.80;105670;1256;76368;-55
2023/04/23 17:02:37;;;;;;;8.40;3.50;;;;;;;11.79;100.00;100290.78;105833;1254;69498;-57
2023/04/23 17:05:05;;;;;;;6.00;3.00;;;;;;;11.76;100.00;100294.54;105789;1251;74378;-58
2023/04/23 17:07:32;;;;;;;6.70;2.50;;;;;;;11.70;100.00;100297.86;105465;1253;64666;-57
2023/04/23 17:09:59;;;;;;;8.80;2.60;;;;;;;11.64;100.00;100301.04;105373;1251;62701;-63
2023/04/23 17:12:26;;;;;;;8.90;2.90;;;;;;;11.58;100.00;100305.25;105355;1257;76932;-60
2023/04/23 17:14:53;;;;;;;7.00;2.10;;;;;;;11.52;100.00;100306.84;105806;1257;68536;-58
2023/04/23 17:17:21;;;;;;;5.30;2.50;;;;;;;11.50;100.00;100308.58;105491;1257;75522;-59
2023/04/23 17:19:49;;;;;;;8.70;3.00;;;;;;;11.47;100.00;100309.95;105954;1257;63470;-59
2023/04/23 17:22:16;;;;;;;5.80;2.60;;;;;;;11.43;100.00;100314.20;105456;1257;62178;-58
2023/04/23 17:24:44;;;;;;;5.30;2.90;;;;;;;11.39;100.00;100315.80;105686;1257;76192;-57
2023/04/23 17:27:11;;;;;;;7.30;2.50;;;;;;;11.35;100.00;100320.45;105805;1251;69664;-57
2023/04/23 17:29:38;;;;;;;7.00;2.30;;;;;;;11.29;100.00;100326.17;105906;1251;73808;-59
2023/04/23 17:32:05;;;;;;;7.20;3.40;;;;;;;11.24;100.00;100331.50;105392;1251;61825;-60
2023/04/23 17:34:33;;;;;;;8.40;3.30;;;;;;;11.18;100.00;100329.23;105461;1256;61995;-58
2023/04/23 17:37:00;;;;;;;12.60;3.70;;;;;;;11.09;100.00;100328.74;105841;1256;76324;-57
2023/04/23 17:39:27;;;;;;;7.30;4.20;;;;;;;11.01;100.00;100333.55;105902;1251;69947;-58
2023/04/23 17:41:56;;;;;;;10.60;4.10;;;;;;;10.93;100.00;100337.31;105744;1253;74938;-62
2023/04/23 17:44:23;;;;;;;7.20;2.50;;;;;;;10.86;100.00;100341.28;105597;1257;62709;-59
2023/04/23 17:46:53;;;;;;;6.90;3.20;;;;;;;10.80;100.00;100346.91;105558;1251;61775;-59
2023/04/23 17:49:21;;;;;;;10.40;2.20;;;;;;;10.77;100.00;100345.19;105833;1257;76229;-57
2023/04/23 17:51:48;;;;;;;6.80;1.80;;;;;;;10.76;100.00;100348.74;106250;1255;68568;-57
2023/04/23 17:54:16;;;;;;;8.70;3.20;;;;;;;10.80;100.00;100347.59;106033;1253;75098;-62
2023/04/23 17:56:43;;;;;;;8.60;2.70;;;;;;;10.85;100.00;100349.94;105627;1253;62540;-57
2023/04/23 17:59:10;;;;;;;7.20;3.10;;;;;;;10.92;100.00;100351.34;105612;1257;61661;-58
2023/04/23 18:01:38;;;;;;;6.00;2.30;;;;;;;10.99;100.00;100354.34;105894;1257;76248;-56
2023/04/23 18:04:05;;;;;;;6.00;2.10;;;;;;;11.07;100.00;100353.27;105958;1253;68083;-58
2023/04/23 18:06:34;;;;;;;11.30;2.70;;;;;;;11.14;100.00;100355.97;105476;1256;74186;-58
2023/04/23 18:09:02;;;;;;;6.10;2.20;;;;;;;11.20;100.00;100355.75;105457;1253;63183;-56
2023/04/23 18:11:29;;;;;;;7.20;2.20;;;;;;;11.26;100.00;100357.01;105708;1254;62519;-56
2023/04/23 18:13:57;;;;;;;6.10;2.60;;;;;;;11.31;100.00;100356.42;109253;1251;76579;-56
2023/04/23 18:16:24;;;;;;;11.60;4.20;;;;;;;11.33;100.00;100353.57;109175;1251;68069;-58
2023/04/23 18:18:51;;;;;;;15.30;10.30;;;;;;;11.32;100.00;100350.94;109289;1251;73634;-62
2023/04/23 18:21:18;;;;;;;23.70;13.10;;;;;;;11.25;100.00;100353.31;109242;1251;61360;-57
2023/04/23 18:23:45;;;;;;;21.90;12.30;;;;;;;11.15;100.00;100350.52;109342;1251;62732;-57
2023/04/23 18:26:12;;;;;;;18.70;10.30;;;;;;;11.01;100.00;100346.63;109253;1251;75972;-56
2023/04/23 18:28:39;;;;;;;19.50;9.40;;;;;;;10.87;100.00;100345.90;109318;1251;69073;-60
2023/04/23 18:31:06;;;;;;;20.10;9.30;;;;;;;10.71;100.00;100341.34;109205;1253;74326;-62
2023/04/23 18:33:42;;;;;;;13.90;7.80;;;;;;;10.56;100.00;100345.76;109190;1253;62641;-58
2023/04/23 18:36:24;;;;;;;16.00;6.70;;;;;;;10.41;100.00;100345.88;109177;1251;62365;-57
2023/04/23 18:38:51;;;;;;;15.20;8.90;;;;;;;10.31;100.00;100346.86;109245;1252;76421;-56
2023/04/23 18:41:19;;;;;;;29.50;16.60;;;;;;;10.24;100.00;100350.11;109200;1251;69494;-57
2023/04/23 18:43:46;;;;;;;25.10;14.20;;;;;;;10.16;100.00;100352.30;109319;1251;74846;-57
2023/04/23 18:46:14;;;;;;;37.30;21.90;;;;;;;10.05;100.00;100353.55;109314;1251;62533;-56
2023/04/23 18:48:51;;;;;;;44.60;24.70;;;;;;;9.93;100.00;100361.00;109193;1251;62463;-61
2023/04/23 18:51:30;;;;;;;40.90;22.60;;;;;;;9.81;100.00;100360.94;109402;1251;74108;-56
2023/04/23 18:53:57;;;;;;;31.10;18.90;;;;;;;9.71;100.00;100361.92;109192;1251;68897;-55
2023/04/23 18:56:24;;;;;;;36.60;20.70;;;;;;;9.63;100.00;100359.58;109283;1251;73697;-63
2023/04/23 18:58:51;;;;;;;32.10;18.30;;;;;;;9.56;100.00;100358.51;109292;1252;62506;-59
2023/04/23 19:01:19;;;;;;;23.50;11.60;;;;;;;9.48;100.00;100356.92;109348;1251;61495;-59
2023/04/23 19:03:46;;;;;;;19.70;13.40;;;;;;;9.40;100.00;100356.75;109242;1251;76298;-59
2023/04/23 19:06:14;;;;;;;18.50;10.50;;;;;;;9.37;100.00;100358.89;109316;1251;67473;-64
2023/04/23 19:08:41;;;;;;;17.30;9.00;;;;;;;9.35;100.00;100361.65;109111;1253;73892;-64
2023/04/23 19:11:08;;;;;;;12.60;7.10;;;;;;;9.33;100.00;100361.18;109278;1253;64530;-59
2023/04/23 19:13:35;;;;;;;10.10;6.30;;;;;;;9.32;100.00;100361.67;109249;1251;61856;-58
2023/04/23 19:16:02;;;;;;;11.30;5.10;;;;;;;9.34;100.00;100360.63;109319;1251;75714;-58
2023/04/23 19:18:29;;;;;;;9.70;5.40;;;;;;;9.37;100.00;100362.21;109164;1251;69205;-57
2023/04/23 19:20:57;;;;;;;10.30;4.00;;;;;;;9.38;100.00;100360.91;109167;1251;73956;-56
2023/04/23 19:23:24;;;;;;;8.60;5.30;;;;;;;9.41;100.00;100363.28;109234;1251;62966;-55
2023/04/23 19:25:51;;;;;;;10.30;4.80;;;;;;;9.44;100.00;100367.02;109259;1251;62227;-57
2023/04/23 19:28:18;;;;;;;9.20;5.00;;;;;;;9.50;100.00;100369.16;109190;1251;75588;-57
2023/04/23 19:30:46;;;;;;;8.20;3.90;;;;;;;9.57;100.00;100363.17;109183;1251;68582;-57
2023/04/23 19:33:13;;;;;;;12.80;4.80;;;;;;;9.63;100.00;100361.55;109240;1251;75259;-56
2023/04/23 19:35:40;;;;;;;10.70;4.40;;;;;;;9.66;100.00;100363.55;109206;1253;63033;-56
2023/04/23 19:38:07;;;;;;;12.10;5.00;;;;;;;9.70;100.00;100360.63;109178;1251;62652;-57
2023/04/23 19:40:34;;;;;;;10.30;5.20;;;;;;;9.75;100.00;100359.91;109264;1251;75792;-59
2023/04/23 19:43:01;;;;;;;13.40;6.80;;;;;;;9.80;100.00;100359.88;109163;1251;69615;-56
2023/04/23 19:45:28;;;;;;;10.70;7.30;;;;;;;9.84;100.00;100357.77;109231;1255;74373;-57
2023/04/23 19:47:56;;;;;;;10.70;6.70;;;;;;;9.87;100.00;100358.05;109185;1251;63078;-57
2023/04/23 19:50:23;;;;;;;16.00;6.30;;;;;;;9.87;100.00;100358.22;109342;1251;61089;-57
2023/04/23 19:52:52;;;;;;;11.50;6.00;;;;;;;9.82;100.00;100363.27;109242;1251;76487;-59
2023/04/23 19:55:21;;;;;;;8.60;4.80;;;;;;;9.78;100.00;100361.36;109296;1251;69540;-57
2023/04/23 19:57:48;;;;;;;9.60;5.10;;;;;;;9.73;100.00;100358.76;109235;1251;75161;-57
2023/04/23 20:00:15;;;;;;;10.50;5.30;;;;;;;9.61;100.00;100358.36;109205;1251;61872;-58
2023/04/23 20:02:42;;;;;;;9.50;4.80;;;;;;;9.63;100.00;100362.66;109222;1251;62269;-57
2023/04/23 20:05:10;;;;;;;11.80;5.90;;;;;;;9.67;100.00;100364.62;109226;1251;76025;-57
2023/04/23 20:07:37;;;;;;;9.30;5.40;;;;;;;9.62;100.00;100361.96;109243;1251;69452;-57
2023/04/23 20:10:05;;;;;;;10.00;5.80;;;;;;;9.54;100.00;100360.43;109254;1251;73340;-57
2023/04/23 20:12:32;;;;;;;9.40;5.30;;;;;;;9.42;100.00;100361.41;109276;1251;64029;-58
2023/04/23 20:14:59;;;;;;;7.40;4.70;;;;;;;9.32;100.00;100360.29;109286;1251;61082;-64
2023/04/23 20:17:28;;;;;;;10.00;5.50;;;;;;;9.24;100.00;100357.73;109219;1254;75263;-57
2023/04/23 20:20:00;;;;;;;10.30;4.70;;;;;;;9.14;100.00;100358.14;109348;1251;69167;-57
2023/04/23 20:22:28;;;;;;;10.10;5.10;;;;;;;9.05;100.00;100358.24;109236;1251;74804;-57
2023/04/23 20:24:55;;;;;;;10.80;5.20;;;;;;;9.00;100.00;100354.50;109195;1251;61806;-58
2023/04/23 20:27:23;;;;;;;9.90;5.10;;;;;;;8.93;100.00;100355.05;109202;1251;62552;-57
2023/04/23 20:29:50;;;;;;;11.10;5.90;;;;;;;8.89;100.00;100354.66;109365;1251;75969;-57
2023/04/23 20:32:17;;;;;;;8.40;3.90;;;;;;;8.85;100.00;100355.69;109339;1251;68261;-56
2023/04/23 20:34:44;;;;;;;9.80;4.30;;;;;;;8.79;100.00;100353.17;109254;1251;74953;-62
2023/04/23 20:37:12;;;;;;;8.10;4.60;;;;;;;8.73;100.00;100356.77;109256;1251;62562;-56
2023/04/23 20:39:40;;;;;;;9.30;5.00;;;;;;;8.66;100.00;100357.17;109265;1251;62424;-56
2023/04/23 20:42:08;;;;;;;14.30;5.00;;;;;;;8.60;100.00;100358.04;109350;1251;75758;-56
2023/04/23 20:44:35;;;;;;;11.00;6.00;;;;;;;8.56;100.00;100359.71;109283;1251;68970;-56
2023/04/23 20:47:03;;;;;;;13.10;5.40;;;;;;;8.52;100.00;100361.87;109278;1251;73748;-59
2023/04/23 20:49:31;;;;;;;8.70;5.10;;;;;;;8.47;100.00;100363.13;109318;1253;63785;-56
2023/04/23 20:51:58;;;;;;;8.10;5.20;;;;;;;8.42;100.00;100363.62;109291;1253;62487;-56
2023/04/23 20:54:25;;;;;;;8.40;5.10;;;;;;;8.36;100.00;100358.73;109311;1251;75843;-57
2023/04/23 20:56:52;;;;;;;9.70;4.70;;;;;;;8.32;100.00;100360.56;109277;1251;69174;-63
2023/04/23 20:59:20;;;;;;;10.30;4.40;;;;;;;8.28;100.00;100360.53;109229;1253;75137;-56
2023/04/23 21:04:38;;;;;;;13.40;6.50;;;;;;;8.24;100.00;100364.31;103105;1285;600356;-57
2023/04/23 21:07:05;;;;;;;13.60;7.80;;;;;;;8.15;100.00;100367.60;105117;1276;61753;-57
2023/04/23 21:09:33;;;;;;;16.10;8.60;;;;;;;8.10;100.00;100370.56;105009;1268;62517;-56
2023/04/23 21:12:01;;;;;;;10.20;7.10;;;;;;;8.04;100.00;100372.14;104942;1268;73358;-58
2023/04/23 21:14:28;;;;;;;9.60;7.10;;;;;;;7.95;100.00;100375.20;104838;1272;68522;-56
2023/04/23 21:16:55;;;;;;;8.70;5.60;;;;;;;7.88;100.00;100378.91;104928;1270;74062;-56
2023/04/23 21:19:22;;;;;;;11.80;6.40;;;;;;;7.83;100.00;100374.29;105047;1266;189041;-56
2023/04/23 21:21:50;;;;;;;16.20;7.90;;;;;;;7.77;100.00;100373.48;105650;1255;62851;-58
2023/04/23 21:24:17;;;;;;;11.40;7.90;;;;;;;7.74;100.00;100374.89;105856;1254;74935;-63
2023/04/23 21:26:45;;;;;;;12.70;7.20;;;;;;;7.73;100.00;100375.66;105591;1260;68460;-56
2023/04/23 21:29:12;;;;;;;13.00;6.20;;;;;;;7.73;100.00;100378.03;105322;1260;75285;-58
2023/04/23 21:31:46;;;;;;;12.70;7.50;;;;;;;7.74;100.00;100376.80;105511;1268;62661;-56
2023/04/23 21:34:14;;;;;;;15.40;9.80;;;;;;;7.71;100.00;100374.77;105869;1260;63616;-56
2023/04/23 21:36:43;;;;;;;15.70;9.00;;;;;;;7.72;100.00;100372.80;105403;1257;75329;-56
2023/04/23 21:39:11;;;;;;;11.50;7.70;;;;;;;7.74;100.00;100377.45;105662;1257;69779;-57
2023/04/23 21:41:39;;;;;;;14.50;7.70;;;;;;;7.76;100.00;100374.74;105403;1269;75144;-63
2023/04/23 21:44:07;;;;;;;12.60;7.80;;;;;;;7.80;100.00;100375.11;105502;1260;64704;-57
2023/04/23 21:46:34;;;;;;;10.60;6.70;;;;;;;7.82;100.00;100374.04;105626;1269;62787;-58
2023/04/23 21:49:01;;;;;;;18.00;7.60;;;;;;;7.80;100.00;100370.55;105710;1258;74578;-56
2023/04/23 21:51:28;;;;;;;12.30;7.50;;;;;;;7.78;100.00;100370.79;105379;1260;68644;-56
2023/04/23 21:53:56;;;;;;;11.60;6.40;;;;;;;7.74;100.00;100365.50;105316;1260;75265;-56
2023/04/23 21:56:23;;;;;;;10.60;6.60;;;;;;;7.70;100.00;100366.96;105585;1267;64071;-62
2023/04/23 21:58:50;;;;;;;13.20;6.20;;;;;;;7.68;100.00;100367.34;105464;1257;61541;-56
2023/04/23 22:01:17;;;;;;;15.00;7.10;;;;;;;7.67;100.00;100370.77;105524;1259;75606;-62
2023/04/23 22:03:45;;;;;;;9.80;6.20;;;;;;;7.65;100.00;100372.34;105281;1259;68177;-56
2023/04/23 22:06:14;;;;;;;13.90;8.60;;;;;;;7.62;100.00;100372.15;106062;1260;74795;-55
2023/04/23 22:08:43;;;;;;;12.70;7.80;;;;;;;7.58;100.00;100372.20;105467;1261;63271;-56
2023/04/23 22:11:11;;;;;;;9.30;6.70;;;;;;;7.54;100.00;100372.27;105784;1259;62865;-59
2023/04/23 22:13:38;;;;;;;19.20;9.10;;;;;;;7.51;100.00;100369.22;105714;1260;74588;-56
2023/04/23 22:16:05;;;;;;;22.10;13.10;;;;;;;7.50;100.00;100374.92;105905;1251;70029;-56
2023/04/23 22:18:50;;;;;;;14.60;8.70;;;;;;;7.50;100.00;100370.09;105889;1251;75218;-59
2023/04/23 22:21:17;;;;;;;14.90;7.40;;;;;;;7.49;100.00;100365.70;105787;1251;64543;-57
2023/04/23 22:23:45;;;;;;;13.30;7.10;;;;;;;7.47;100.00;100367.64;105943;1251;61748;-56
2023/04/23 22:26:12;;;;;;;10.90;5.90;;;;;;;7.45;100.00;100367.45;106077;1253;74620;-64
2023/04/23 22:28:39;;;;;;;11.50;7.30;;;;;;;7.46;100.00;100367.42;105703;1255;68299;-60
2023/04/23 22:31:06;;;;;;;12.50;7.60;;;;;;;7.45;100.00;100369.80;105785;1256;74190;-59
2023/04/23 22:33:35;;;;;;;14.20;8.10;;;;;;;7.44;100.00;100365.02;105934;1251;64338;-57
2023/04/23 22:36:04;;;;;;;14.30;7.60;;;;;;;7.42;100.00;100365.17;105995;1251;62734;-61
2023/04/23 22:38:31;;;;;;;12.80;6.90;;;;;;;7.40;100.00;100364.05;105855;1257;75418;-59
2023/04/23 22:40:58;;;;;;;9.40;5.40;;;;;;;7.39;100.00;100364.98;106152;1253;69311;-65
2023/04/23 22:43:25;;;;;;;10.20;5.30;;;;;;;7.37;100.00;100365.89;105646;1254;74453;-58
2023/04/23 22:45:52;;;;;;;9.60;5.60;;;;;;;7.35;100.00;100365.77;105760;1257;61619;-58
2023/04/23 22:48:20;;;;;;;10.20;5.70;;;;;;;7.34;100.00;100361.40;105994;1257;62454;-59
2023/04/23 22:50:49;;;;;;;9.00;4.30;;;;;;;7.34;100.00;100361.95;106309;1251;74582;-63
2023/04/23 22:53:18;;;;;;;9.30;3.90;;;;;;;7.33;100.00;100356.28;105672;1256;68436;-58
2023/04/23 22:55:45;;;;;;;7.00;3.30;;;;;;;7.33;100.00;100351.48;106062;1251;75063;-59
2023/04/23 22:58:13;;;;;;;9.60;4.10;;;;;;;7.33;100.00;100353.36;105968;1254;64296;-58